sensor_id;sensor_type;location;lat;lon;timestamp;pressure;altitude;pressure_sealevel;temperature;humidity
6829;BME280;17930;48.592;8.868;2023-11-21T00:00:40;96247.66;;;6.77;100.00
6829;BME280;17930;48.592;8.868;2023-11-21T00:03:07;96242.97;;;6.74;100.00
6829;BME280;17930;48.592;8.868;2023-11-21T00:05:34;96244.00;;;6.78;100.00
6829;BME280;17930;48.592;8.868;2023-11-21T00:08:01;96240.38;;;6.79;100.00
6829;BME280;17930;48.592;8.868;2023-11-21T00:10:28;96247.09;;;6.85;100.00
6829;BME280;17930;48.592;8.868;2023-11-21T00:12:55;96243.47;;;6.86;100.00
6829;BME280;17930;48.592;8.868;2023-11-21T00:15:23;96246.59;;;6.93;100.00
6829;BME280;17930;48.592;8.868;2023-11-21T00:17:49;96243.50;;;6.91;100.00
6829;BME280;17930;48.592;8.868;2023-11-21T00:20:16;96245.53;;;6.99;100.00
6829;BME280;17930;48.592;8.868;2023-11-21T00:22:43;96239.56;;;7.08;100.00
6829;BME280;17930;48.592;8.868;2023-11-21T00:25:10;96244.72;;;7.23;100.00
6829;BME280;17930;48.592;8.868;2023-11-21T00:27:38;96233.06;;;7.30;100.00
6829;BME280;17930;48.592;8.868;2023-11-21T00:30:05;96241.88;;;7.19;100.00
6829;BME280;17930;48.592;8.868;2023-11-21T00:32:35;96241.34;;;7.22;100.00
6829;BME280;17930;48.592;8.868;2023-11-21T00:35:05;96241.34;;;7.32;100.00
6829;BME280;17930;48.592;8.868;2023-11-21T00:37:31;96233.31;;;7.24;100.00
6829;BME280;17930;48.592;8.868;2023-11-21T00:39:58;96232.03;;;7.26;100.00
6829;BME280;17930;48.592;8.868;2023-11-21T00:42:25;96241.38;;;7.13;100.00
6829;BME280;17930;48.592;8.868;2023-11-21T00:44:52;96239.28;;;7.14;100.00
6829;BME280;17930;48.592;8.868;2023-11-21T00:47:19;96240.84;;;7.25;100.00
6829;BME280;17930;48.592;8.868;2023-11-21T00:49:47;96232.56;;;7.23;100.00
6829;BME280;17930;48.592;8.868;2023-11-21T00:52:14;96245.47;;;7.38;100.00
6829;BME280;17930;48.592;8.868;2023-11-21T00:54:41;96242.41;;;7.16;100.00
6829;BME280;17930;48.592;8.868;2023-11-21T00:57:08;96247.63;;;7.07;100.00
6829;BME280;17930;48.592;8.868;2023-11-21T00:59:36;96237.75;;;7.13;100.00
6829;BME280;17930;48.592;8.868;2023-11-21T01:02:03;96239.59;;;6.98;100.00
6829;BME280;17930;48.592;8.868;2023-11-21T01:04:30;96246.06;;;6.96;100.00
6829;BME280;17930;48.592;8.868;2023-11-21T01:06:59;96244.25;;;7.01;100.00
6829;BME280;17930;48.592;8.868;2023-11-21T01:09:26;96239.59;;;6.98;100.00
6829;BME280;17930;48.592;8.868;2023-11-21T01:11:53;96232.56;;;7.23;100.00
6829;BME280;17930;48.592;8.868;2023-11-21T01:14:19;96236.19;;;7.13;100.00
6829;BME280;17930;48.592;8.868;2023-11-21T01:16:46;96237.44;;;7.30;100.00
6829;BME280;17930;48.592;8.868;2023-11-21T01:19:14;96240.84;;;7.25;100.00
6829;BME280;17930;48.592;8.868;2023-11-21T01:21:40;96235.91;;;7.29;100.00
6829;BME280;17930;48.592;8.868;2023-11-21T01:24:09;96239.81;;;7.12;100.00
6829;BME280;17930;48.592;8.868;2023-11-21T01:26:36;96244.25;;;7.01;100.00
6829;BME280;17930;48.592;8.868;2023-11-21T01:29:02;96238.28;;;7.06;100.00
6829;BME280;17930;48.592;8.868;2023-11-21T01:31:30;96239.31;;;7.05;100.00
6829;BME280;17930;48.592;8.868;2023-11-21T01:33:56;96243.50;;;6.91;100.00
6829;BME280;17930;48.592;8.868;2023-11-21T01:36:30;96237.78;;;6.84;100.00
6829;BME280;17930;48.592;8.868;2023-11-21T01:38:57;96243.50;;;6.81;100.00
6829;BME280;17930;48.592;8.868;2023-11-21T01:41:26;96241.66;;;6.86;100.00
6829;BME280;17930;48.592;8.868;2023-11-21T01:43:53;96237.78;;;6.89;100.00
6829;BME280;17930;48.592;8.868;2023-11-21T01:46:20;96248.38;;;7.07;100.00
6829;BME280;17930;48.592;8.868;2023-11-21T01:48:48;96241.63;;;7.06;100.00
6829;BME280;17930;48.592;8.868;2023-11-21T01:51:15;96238.78;;;7.27;100.00
6829;BME280;17930;48.592;8.868;2023-11-21T01:53:42;96236.66;;;7.34;100.00
6829;BME280;17930;48.592;8.868;2023-11-21T01:56:09;96234.09;;;7.14;100.00
6829;BME280;17930;48.592;8.868;2023-11-21T01:58:38;96230.00;;;7.04;100.00
6829;BME280;17930;48.592;8.868;2023-11-21T02:01:05;96230.47;;;7.15;100.00
6829;BME280;17930;48.592;8.868;2023-11-21T02:03:32;96219.88;;;7.07;100.00
6829;BME280;17930;48.592;8.868;2023-11-21T02:05:59;96220.41;;;7.09;100.00
6829;BME280;17930;48.592;8.868;2023-11-21T02:08:26;96220.41;;;6.99;100.00
6829;BME280;17930;48.592;8.868;2023-11-21T02:10:53;96226.31;;;7.19;100.00
6829;BME280;17930;48.592;8.868;2023-11-21T02:13:19;96217.03;;;7.04;100.00
6829;BME280;17930;48.592;8.868;2023-11-21T02:15:48;96222.50;;;6.77;100.00
6829;BME280;17930;48.592;8.868;2023-11-21T02:18:17;96228.97;;;6.65;100.00
6829;BME280;17930;48.592;8.868;2023-11-21T02:20:44;96226.91;;;6.72;100.00
6829;BME280;17930;48.592;8.868;2023-11-21T02:23:13;96232.59;;;6.69;100.00
6829;BME280;17930;48.592;8.868;2023-11-21T02:25:40;96230.03;;;6.74;100.00
6829;BME280;17930;48.592;8.868;2023-11-21T02:28:08;96237.53;;;6.75;100.00
6829;BME280;17930;48.592;8.868;2023-11-21T02:30:38;96226.88;;;7.07;100.00
6829;BME280;17930;48.592;8.868;2023-11-21T02:33:04;96222.72;;;7.11;100.00
6829;BME280;17930;48.592;8.868;2023-11-21T02:35:32;96226.91;;;6.87;100.00
6829;BME280;17930;48.592;8.868;2023-11-21T02:37:59;96231.03;;;6.78;100.00
6829;BME280;17930;48.592;8.868;2023-11-21T02:40:27;96223.53;;;6.71;100.00
6829;BME280;17930;48.592;8.868;2023-11-21T02:42:54;96219.66;;;6.44;100.00
6829;BME280;17930;48.592;8.868;2023-11-21T02:45:21;96223.81;;;6.40;100.00
6829;BME280;17930;48.592;8.868;2023-11-21T02:47:48;96222.78;;;6.51;100.00
6829;BME280;17930;48.592;8.868;2023-11-21T02:50:15;96213.97;;;6.57;100.00
6829;BME280;17930;48.592;8.868;2023-11-21T02:52:44;96214.75;;;6.53;100.00
6829;BME280;17930;48.592;8.868;2023-11-21T02:55:11;96209.28;;;6.69;100.00
6829;BME280;17930;48.592;8.868;2023-11-21T02:57:39;96210.34;;;6.63;100.00
6829;BME280;17930;48.592;8.868;2023-11-21T03:00:06;96213.16;;;6.81;100.00
6829;BME280;17930;48.592;8.868;2023-11-21T03:02:34;96208.22;;;6.95;100.00
6829;BME280;17930;48.592;8.868;2023-11-21T03:05:02;96208.75;;;6.82;100.00
6829;BME280;17930;48.592;8.868;2023-11-21T03:07:30;96216.81;;;6.75;100.00
6829;BME280;17930;48.592;8.868;2023-11-21T03:09:57;96206.19;;;6.67;100.00
6829;BME280;17930;48.592;8.868;2023-11-21T03:12:24;96204.63;;;6.56;100.00
6829;BME280;17930;48.592;8.868;2023-11-21T03:14:52;96216.81;;;6.70;100.00
6829;BME280;17930;48.592;8.868;2023-11-21T03:17:20;96208.75;;;6.82;100.00
6829;BME280;17930;48.592;8.868;2023-11-21T03:19:47;96210.81;;;7.00;100.00
6829;BME280;17930;48.592;8.868;2023-11-21T03:22:14;96207.19;;;6.86;100.00
6829;BME280;17930;48.592;8.868;2023-11-21T03:24:40;96211.34;;;6.72;100.00
6829;BME280;17930;48.592;8.868;2023-11-21T03:27:07;96209.53;;;6.77;100.00
6829;BME280;17930;48.592;8.868;2023-11-21T03:29:33;96213.19;;;6.71;100.00
6829;BME280;17930;48.592;8.868;2023-11-21T03:32:02;96209.28;;;6.89;100.00
6829;BME280;17930;48.592;8.868;2023-11-21T03:34:28;96217.06;;;6.79;100.00
6829;BME280;17930;48.592;8.868;2023-11-21T03:36:55;96211.38;;;6.67;100.00
6829;BME280;17930;48.592;8.868;2023-11-21T03:39:22;96214.75;;;6.63;100.00
6829;BME280;17930;48.592;8.868;2023-11-21T03:41:49;96215.25;;;6.60;100.00
6829;BME280;17930;48.592;8.868;2023-11-21T03:44:20;96212.16;;;6.58;100.00
6829;BME280;17930;48.592;8.868;2023-11-21T03:46:47;96223.03;;;6.55;100.00
6829;BME280;17930;48.592;8.868;2023-11-21T03:49:15;96224.31;;;6.57;100.00
6829;BME280;17930;48.592;8.868;2023-11-21T03:51:42;96229.25;;;6.59;100.00
6829;BME280;17930;48.592;8.868;2023-11-21T03:54:08;96222.25;;;6.64;100.00
6829;BME280;17930;48.592;8.868;2023-11-21T03:56:35;96230.03;;;6.59;100.00
6829;BME280;17930;48.592;8.868;2023-11-21T03:59:02;96227.69;;;6.77;100.00
6829;BME280;17930;48.592;8.868;2023-11-21T04:01:28;96226.91;;;6.77;100.00
6829;BME280;17930;48.592;8.868;2023-11-21T04:03:55;96226.41;;;6.70;100.00
6829;BME280;17930;48.592;8.868;2023-11-21T04:06:24;96227.69;;;6.82;100.00
6829;BME280;17930;48.592;8.868;2023-11-21T04:08:51;96225.09;;;6.72;100.00
6829;BME280;17930;48.592;8.868;2023-11-21T04:11:17;96224.31;;;6.67;100.00
6829;BME280;17930;48.592;8.868;2023-11-21T04:13:44;96229.50;;;6.67;100.00
6829;BME280;17930;48.592;8.868;2023-11-21T04:16:12;96240.63;;;6.67;100.00
6829;BME280;17930;48.592;8.868;2023-11-21T04:18:39;96232.63;;;6.64;100.00
6829;BME280;17930;48.592;8.868;2023-11-21T04:21:07;96231.31;;;6.62;100.00
6829;BME280;17930;48.592;8.868;2023-11-21T04:23:35;96225.38;;;6.71;100.00
6829;BME280;17930;48.592;8.868;2023-11-21T04:26:02;96233.38;;;6.69;100.00
6829;BME280;17930;48.592;8.868;2023-11-21T04:28:28;96228.44;;;6.88;100.00
6829;BME280;17930;48.592;8.868;2023-11-21T04:30:56;96237.28;;;6.77;100.00
6829;BME280;17930;48.592;8.868;2023-11-21T04:33:22;96233.63;;;6.68;100.00
6829;BME280;17930;48.592;8.868;2023-11-21T04:35:49;96243.50;;;6.66;100.00
6829;BME280;17930;48.592;8.868;2023-11-21T04:38:16;96242.47;;;6.67;100.00
6829;BME280;17930;48.592;8.868;2023-11-21T04:40:43;96241.41;;;7.03;100.00
6829;BME280;17930;48.592;8.868;2023-11-21T04:43:11;96237.78;;;7.04;100.00
6829;BME280;17930;48.592;8.868;2023-11-21T04:45:38;96245.31;;;6.85;100.00
6829;BME280;17930;48.592;8.868;2023-11-21T04:48:06;96247.66;;;6.77;100.00
6829;BME280;17930;48.592;8.868;2023-11-21T04:50:33;96249.94;;;6.93;100.00
6829;BME280;17930;48.592;8.868;2023-11-21T04:53:00;96249.72;;;6.90;100.00
6829;BME280;17930;48.592;8.868;2023-11-21T04:55:27;96253.03;;;7.10;100.00
6829;BME280;17930;48.592;8.868;2023-11-21T04:57:55;96251.75;;;6.98;100.00
6829;BME280;17930;48.592;8.868;2023-11-21T05:00:22;96245.03;;;6.87;100.00
6829;BME280;17930;48.592;8.868;2023-11-21T05:02:49;96248.13;;;7.09;100.00
6829;BME280;17930;48.592;8.868;2023-11-21T05:05:16;96248.38;;;7.07;100.00
6829;BME280;17930;48.592;8.868;2023-11-21T05:07:42;96256.72;;;6.89;100.00
6829;BME280;17930;48.592;8.868;2023-11-21T05:10:09;96260.84;;;6.80;100.00
6829;BME280;17930;48.592;8.868;2023-11-21T05:12:37;96258.53;;;6.74;100.00
6829;BME280;17930;48.592;8.868;2023-11-21T05:15:07;96260.06;;;6.75;100.00
6829;BME280;17930;48.592;8.868;2023-11-21T05:17:36;96258.00;;;6.77;100.00
6829;BME280;17930;48.592;8.868;2023-11-21T05:20:05;96265.00;;;6.81;100.00
6829;BME280;17930;48.592;8.868;2023-11-21T05:22:34;96265.25;;;6.75;100.00
6829;BME280;17930;48.592;8.868;2023-11-21T05:25:01;96268.63;;;6.65;100.00
6829;BME280;17930;48.592;8.868;2023-11-21T05:27:29;96268.13;;;6.68;100.00
6829;BME280;17930;48.592;8.868;2023-11-21T05:29:56;96274.56;;;6.66;100.00
6829;BME280;17930;48.592;8.868;2023-11-21T05:32:24;96271.47;;;6.69;100.00
6829;BME280;17930;48.592;8.868;2023-11-21T05:34:53;96282.63;;;6.74;100.00
6829;BME280;17930;48.592;8.868;2023-11-21T05:37:28;96282.88;;;6.73;100.00
6829;BME280;17930;48.592;8.868;2023-11-21T05:39:55;96274.59;;;7.01;100.00
6829;BME280;17930;48.592;8.868;2023-11-21T05:42:22;96281.31;;;7.12;100.00
6829;BME280;17930;48.592;8.868;2023-11-21T05:44:49;96284.41;;;7.09;100.00
6829;BME280;17930;48.592;8.868;2023-11-21T05:47:16;96279.78;;;7.01;100.00
6829;BME280;17930;48.592;8.868;2023-11-21T05:49:44;96278.22;;;6.70;100.00
6829;BME280;17930;48.592;8.868;2023-11-21T05:52:15;96278.22;;;6.70;100.00
6829;BME280;17930;48.592;8.868;2023-11-21T05:54:43;96285.44;;;6.68;100.00
6829;BME280;17930;48.592;8.868;2023-11-21T05:57:10;96281.81;;;6.59;100.00
6829;BME280;17930;48.592;8.868;2023-11-21T05:59:37;96281.31;;;6.82;100.00
6829;BME280;17930;48.592;8.868;2023-11-21T06:02:05;96277.16;;;6.56;100.00
6829;BME280;17930;48.592;8.868;2023-11-21T06:04:33;96283.09;;;6.37;100.00
6829;BME280;17930;48.592;8.868;2023-11-21T06:07:01;96286.41;;;6.22;100.00
6829;BME280;17930;48.592;8.868;2023-11-21T06:09:28;96277.06;;;6.07;100.00
6829;BME280;17930;48.592;8.868;2023-11-21T06:11:54;96287.97;;;6.23;100.00
6829;BME280;17930;48.592;8.868;2023-11-21T06:14:21;96288.44;;;6.06;100.00
6829;BME280;17930;48.592;8.868;2023-11-21T06:16:48;96297.22;;;6.00;100.00
6829;BME280;17930;48.592;8.868;2023-11-21T06:19:17;96295.69;;;6.04;100.00
6829;BME280;17930;48.592;8.868;2023-11-21T06:21:45;96286.97;;;6.24;100.00
6829;BME280;17930;48.592;8.868;2023-11-21T06:24:13;96293.09;;;6.04;100.00
6829;BME280;17930;48.592;8.868;2023-11-21T06:26:40;96299.91;;;6.24;100.00
6829;BME280;17930;48.592;8.868;2023-11-21T06:29:07;96299.94;;;6.34;100.00
6829;BME280;17930;48.592;8.868;2023-11-21T06:31:34;96304.13;;;6.60;100.00
6829;BME280;17930;48.592;8.868;2023-11-21T06:34:00;96308.75;;;6.53;100.00
6829;BME280;17930;48.592;8.868;2023-11-21T06:36:28;96315.75;;;6.58;100.00
6829;BME280;17930;48.592;8.868;2023-11-21T06:38:55;96311.84;;;6.55;100.00
6829;BME280;17930;48.592;8.868;2023-11-21T06:41:23;96317.56;;;6.47;100.00
6829;BME280;17930;48.592;8.868;2023-11-21T06:43:50;96326.91;;;6.68;100.00
6829;BME280;17930;48.592;8.868;2023-11-21T06:46:17;96319.66;;;6.60;100.00
6829;BME280;17930;48.592;8.868;2023-11-21T06:48:45;96328.94;;;6.46;100.00
6829;BME280;17930;48.592;8.868;2023-11-21T06:51:11;96331.53;;;6.41;100.00
6829;BME280;17930;48.592;8.868;2023-11-21T06:53:38;96336.72;;;6.46;100.00
6829;BME280;17930;48.592;8.868;2023-11-21T06:56:15;96339.31;;;6.46;100.00
6829;BME280;17930;48.592;8.868;2023-11-21T06:58:43;96342.16;;;6.45;100.00
6829;BME280;17930;48.592;8.868;2023-11-21T07:01:10;96340.66;;;6.83;100.00
6829;BME280;17930;48.592;8.868;2023-11-21T07:03:37;96342.47;;;6.73;100.00
6829;BME280;17930;48.592;8.868;2023-11-21T07:06:04;96347.13;;;6.66;100.00
6829;BME280;17930;48.592;8.868;2023-11-21T07:08:31;96346.91;;;6.82;100.00
6829;BME280;17930;48.592;8.868;2023-11-21T07:10:58;96349.22;;;6.74;100.00
6829;BME280;17930;48.592;8.868;2023-11-21T07:13:24;96347.63;;;6.58;100.00
6829;BME280;17930;48.592;8.868;2023-11-21T07:15:52;96356.19;;;6.73;100.00
6829;BME280;17930;48.592;8.868;2023-11-21T07:18:19;96359.56;;;6.79;100.00
6829;BME280;17930;48.592;8.868;2023-11-21T07:20:46;96360.38;;;6.84;100.00
6829;BME280;17930;48.592;8.868;2023-11-21T07:23:13;96366.84;;;6.77;100.00
6829;BME280;17930;48.592;8.868;2023-11-21T07:25:41;96375.16;;;6.84;100.00
6829;BME280;17930;48.592;8.868;2023-11-21T07:28:08;96377.72;;;6.74;100.00
6829;BME280;17930;48.592;8.868;2023-11-21T07:30:35;96374.91;;;6.95;100.00
6829;BME280;17930;48.592;8.868;2023-11-21T07:33:04;96376.69;;;6.80;100.00
6829;BME280;17930;48.592;8.868;2023-11-21T07:35:32;96375.16;;;6.84;100.00
6829;BME280;17930;48.592;8.868;2023-11-21T07:37:59;96375.69;;;7.15;100.00
6829;BME280;17930;48.592;8.868;2023-11-21T07:40:26;96381.91;;;7.19;100.00
6829;BME280;17930;48.592;8.868;2023-11-21T07:42:53;96380.38;;;7.23;100.00
6829;BME280;17930;48.592;8.868;2023-11-21T07:45:23;96381.91;;;7.10;100.00
6829;BME280;17930;48.592;8.868;2023-11-21T07:47:49;96379.31;;;7.10;100.00
6829;BME280;17930;48.592;8.868;2023-11-21T07:50:17;96382.94;;;7.04;100.00
6829;BME280;17930;48.592;8.868;2023-11-21T07:52:45;96378.78;;;7.08;100.00
6829;BME280;17930;48.592;8.868;2023-11-21T07:55:13;96383.47;;;7.15;100.00
6829;BME280;17930;48.592;8.868;2023-11-21T07:57:40;96381.38;;;7.22;100.00
6829;BME280;17930;48.592;8.868;2023-11-21T08:00:08;96378.81;;;7.37;100.00
6829;BME280;17930;48.592;8.868;2023-11-21T08:02:37;96384.75;;;7.38;100.00
6829;BME280;17930;48.592;8.868;2023-11-21T08:05:05;96380.88;;;7.40;100.00
6829;BME280;17930;48.592;8.868;2023-11-21T08:07:33;96388.13;;;7.43;100.00
6829;BME280;17930;48.592;8.868;2023-11-21T08:10:00;96386.03;;;7.65;100.00
6829;BME280;17930;48.592;8.868;2023-11-21T08:12:27;96392.75;;;7.71;100.00
6829;BME280;17930;48.592;8.868;2023-11-21T08:14:54;96387.34;;;7.67;100.00
6829;BME280;17930;48.592;8.868;2023-11-21T08:17:20;96383.16;;;7.81;100.00
6829;BME280;17930;48.592;8.868;2023-11-21T08:19:47;96390.66;;;7.88;100.00
6829;BME280;17930;48.592;8.868;2023-11-21T08:22:14;96382.09;;;7.87;100.00
6829;BME280;17930;48.592;8.868;2023-11-21T08:24:42;96387.56;;;7.76;100.00
6829;BME280;17930;48.592;8.868;2023-11-21T08:27:10;96389.38;;;7.90;100.00
6829;BME280;17930;48.592;8.868;2023-11-21T08:29:36;96387.03;;;7.89;100.00
6829;BME280;17930;48.592;8.868;2023-11-21T08:32:04;96391.16;;;7.95;100.00
6829;BME280;17930;48.592;8.868;2023-11-21T08:34:31;96392.19;;;8.14;100.00
6829;BME280;17930;48.592;8.868;2023-11-21T08:36:57;96393.19;;;8.17;100.00
6829;BME280;17930;48.592;8.868;2023-11-21T08:39:24;96393.97;;;8.28;100.00
6829;BME280;17930;48.592;8.868;2023-11-21T08:41:54;96389.50;;;8.38;100.00
6829;BME280;17930;48.592;8.868;2023-11-21T08:44:20;96390.25;;;8.39;100.00
6829;BME280;17930;48.592;8.868;2023-11-21T08:46:48;96391.31;;;8.38;100.00
6829;BME280;17930;48.592;8.868;2023-11-21T08:49:15;96390.97;;;8.54;100.00
6829;BME280;17930;48.592;8.868;2023-11-21T08:51:44;96401.38;;;8.59;100.00
6829;BME280;17930;48.592;8.868;2023-11-21T08:54:11;96391.34;;;8.81;100.00
6829;BME280;17930;48.592;8.868;2023-11-21T08:56:38;96395.47;;;8.87;100.00
6829;BME280;17930;48.592;8.868;2023-11-21T08:59:06;96396.50;;;8.96;100.00
6829;BME280;17930;48.592;8.868;2023-11-21T09:01:33;96401.75;;;8.81;100.00
6829;BME280;17930;48.592;8.868;2023-11-21T09:04:00;96400.50;;;8.73;100.00
6829;BME280;17930;48.592;8.868;2023-11-21T09:06:27;96397.16;;;8.73;100.00
6829;BME280;17930;48.592;8.868;2023-11-21T09:08:54;96395.59;;;8.72;100.00
6829;BME280;17930;48.592;8.868;2023-11-21T09:11:21;96399.25;;;8.66;100.00
6829;BME280;17930;48.592;8.868;2023-11-21T09:13:48;96402.34;;;8.68;100.00
6829;BME280;17930;48.592;8.868;2023-11-21T09:16:17;96400.50;;;8.73;100.00
6829;BME280;17930;48.592;8.868;2023-11-21T09:18:45;96403.34;;;8.77;100.00
6829;BME280;17930;48.592;8.868;2023-11-21T09:21:11;96398.09;;;8.87;100.00
6829;BME280;17930;48.592;8.868;2023-11-21T09:23:39;96407.94;;;8.95;100.00
6829;BME280;17930;48.592;8.868;2023-11-21T09:26:06;96407.19;;;9.27;100.00
6829;BME280;17930;48.592;8.868;2023-11-21T09:28:33;96398.88;;;9.59;100.00
6829;BME280;17930;48.592;8.868;2023-11-21T09:31:03;96406.41;;;9.60;100.00
6829;BME280;17930;48.592;8.868;2023-11-21T09:33:31;96400.09;;;9.66;100.00
6829;BME280;17930;48.592;8.868;2023-11-21T09:35:59;96397.47;;;9.71;100.00
6829;BME280;17930;48.592;8.868;2023-11-21T09:38:26;96387.41;;;9.60;100.00
6829;BME280;17930;48.592;8.868;2023-11-21T09:40:54;96386.59;;;9.64;100.00
6829;BME280;17930;48.592;8.868;2023-11-21T09:43:24;96394.19;;;9.61;100.00
6829;BME280;17930;48.592;8.868;2023-11-21T09:45:57;96391.88;;;9.54;100.00
6829;BME280;17930;48.592;8.868;2023-11-21T09:48:26;96398.88;;;9.25;100.00
6829;BME280;17930;48.592;8.868;2023-11-21T09:50:54;96397.63;;;9.18;100.00
6829;BME280;17930;48.592;8.868;2023-11-21T09:53:22;96408.19;;;9.31;100.00
6829;BME280;17930;48.592;8.868;2023-11-21T09:55:51;96402.91;;;9.41;100.00
6829;BME280;17930;48.592;8.868;2023-11-21T09:58:19;96403.31;;;9.58;100.00
6829;BME280;17930;48.592;8.868;2023-11-21T10:00:49;96406.47;;;9.50;100.00
6829;BME280;17930;48.592;8.868;2023-11-21T10:03:16;96402.84;;;9.51;100.00
6829;BME280;17930;48.592;8.868;2023-11-21T10:05:43;96408.03;;;9.51;100.00
6829;BME280;17930;48.592;8.868;2023-11-21T10:08:12;96407.47;;;9.59;100.00
6829;BME280;17930;48.592;8.868;2023-11-21T10:10:43;96408.50;;;9.58;100.00
6829;BME280;17930;48.592;8.868;2023-11-21T10:13:12;96408.50;;;9.58;100.00
6829;BME280;17930;48.592;8.868;2023-11-21T10:15:42;96409.81;;;9.56;100.00
6829;BME280;17930;48.592;8.868;2023-11-21T10:18:15;96410.97;;;9.73;100.00
6829;BME280;17930;48.592;8.868;2023-11-21T10:20:41;96404.59;;;9.89;100.00
6829;BME280;17930;48.592;8.868;2023-11-21T10:23:09;96413.84;;;10.05;100.00
6829;BME280;17930;48.592;8.868;2023-11-21T10:25:39;96395.88;;;10.26;100.00
6829;BME280;17930;48.592;8.868;2023-11-21T10:28:07;96398.00;;;10.24;100.00
6829;BME280;17930;48.592;8.868;2023-11-21T10:30:35;96385.88;;;10.33;100.00
6829;BME280;17930;48.592;8.868;2023-11-21T10:33:05;96389.22;;;10.39;100.00
6829;BME280;17930;48.592;8.868;2023-11-21T10:35:42;96393.38;;;10.40;100.00
6829;BME280;17930;48.592;8.868;2023-11-21T10:38:12;96390.66;;;10.26;100.00
6829;BME280;17930;48.592;8.868;2023-11-21T10:40:41;96396.38;;;10.28;100.00
6829;BME280;17930;48.592;8.868;2023-11-21T10:43:15;96390.78;;;10.17;100.00
6829;BME280;17930;48.592;8.868;2023-11-21T10:45:42;96401.09;;;10.03;100.00
6829;BME280;17930;48.592;8.868;2023-11-21T10:48:10;96403.69;;;9.75;100.00
6829;BME280;17930;48.592;8.868;2023-11-21T10:50:38;96409.28;;;9.59;100.00
6829;BME280;17930;48.592;8.868;2023-11-21T10:53:05;96414.97;;;9.32;100.00
6829;BME280;17930;48.592;8.868;2023-11-21T10:55:32;96419.69;;;9.25;100.00
6829;BME280;17930;48.592;8.868;2023-11-21T10:58:03;96426.97;;;9.23;100.00
6829;BME280;17930;48.592;8.868;2023-11-21T11:00:32;96430.09;;;9.25;100.00
6829;BME280;17930;48.592;8.868;2023-11-21T11:02:59;96431.06;;;9.34;100.00
6829;BME280;17930;48.592;8.868;2023-11-21T11:05:27;96437.50;;;9.04;100.00
6829;BME280;17930;48.592;8.868;2023-11-21T11:07:58;96436.81;;;8.93;100.00
6829;BME280;17930;48.592;8.868;2023-11-21T11:10:27;96448.47;;;9.01;100.00
6829;BME280;17930;48.592;8.868;2023-11-21T11:12:55;96449.00;;;8.98;100.00
6829;BME280;17930;48.592;8.868;2023-11-21T11:15:24;96456.31;;;8.91;100.00
6829;BME280;17930;48.592;8.868;2023-11-21T11:17:51;96458.41;;;8.89;100.00
6829;BME280;17930;48.592;8.868;2023-11-21T11:20:22;96463.78;;;9.07;100.00
6829;BME280;17930;48.592;8.868;2023-11-21T11:22:59;96457.72;;;9.17;100.00
6829;BME280;17930;48.592;8.868;2023-11-21T11:25:45;96461.81;;;9.32;100.00
6829;BME280;17930;48.592;8.868;2023-11-21T11:28:15;96462.09;;;9.26;100.00
6829;BME280;17930;48.592;8.868;2023-11-21T11:30:55;96468.06;;;9.26;100.00
6829;BME280;17930;48.592;8.868;2023-11-21T11:33:31;96465.94;;;9.38;100.00
6829;BME280;17930;48.592;8.868;2023-11-21T11:36:06;96457.50;;;9.51;100.00
6829;BME280;17930;48.592;8.868;2023-11-21T11:38:34;96455.91;;;9.55;100.00
6829;BME280;17930;48.592;8.868;2023-11-21T11:41:02;96461.94;;;9.51;100.00
6829;BME280;17930;48.592;8.868;2023-11-21T11:43:30;96458.53;;;9.55;100.00
6829;BME280;17930;48.592;8.868;2023-11-21T11:45:59;96462.38;;;9.63;100.00
6829;BME280;17930;48.592;8.868;2023-11-21T11:48:29;96453.72;;;9.67;100.00
6829;BME280;17930;48.592;8.868;2023-11-21T11:51:06;96461.38;;;9.87;100.00
6829;BME280;17930;48.592;8.868;2023-11-21T11:53:39;96455.69;;;9.85;100.00
6829;BME280;17930;48.592;8.868;2023-11-21T11:56:22;96455.69;;;9.85;100.00
6829;BME280;17930;48.592;8.868;2023-11-21T11:58:48;96453.56;;;9.87;100.00
6829;BME280;17930;48.592;8.868;2023-11-21T12:01:18;96458.38;;;9.75;100.00
6829;BME280;17930;48.592;8.868;2023-11-21T12:03:45;96463.22;;;9.53;100.00
6829;BME280;17930;48.592;8.868;2023-11-21T12:06:33;96457.72;;;9.17;100.00
6829;BME280;17930;48.592;8.868;2023-11-21T12:09:01;96461.28;;;9.30;100.00
6829;BME280;17930;48.592;8.868;2023-11-21T12:11:30;96465.94;;;9.38;100.00
6829;BME280;17930;48.592;8.868;2023-11-21T12:13:57;96464.69;;;9.26;100.00
6829;BME280;17930;48.592;8.868;2023-11-21T12:16:26;96468.31;;;9.30;100.00
6829;BME280;17930;48.592;8.868;2023-11-21T12:18:53;96460.00;;;9.28;100.00
6829;BME280;17930;48.592;8.868;2023-11-21T12:21:20;96464.22;;;9.24;100.00
6829;BME280;17930;48.592;8.868;2023-11-21T12:23:47;96471.19;;;9.28;100.00
6829;BME280;17930;48.592;8.868;2023-11-21T12:26:13;96461.81;;;9.27;100.00
6829;BME280;17930;48.592;8.868;2023-11-21T12:28:40;96466.81;;;9.62;100.00
6829;BME280;17930;48.592;8.868;2023-11-21T12:31:07;96467.53;;;10.01;100.00
6829;BME280;17930;48.592;8.868;2023-11-21T12:33:35;96469.50;;;10.14;100.00
6829;BME280;17930;48.592;8.868;2023-11-21T12:36:03;96463.81;;;10.35;100.00
6829;BME280;17930;48.592;8.868;2023-11-21T12:38:33;96461.66;;;10.65;100.00
6829;BME280;17930;48.592;8.868;2023-11-21T12:41:00;96452.13;;;11.16;100.00
6829;BME280;17930;48.592;8.868;2023-11-21T12:43:28;96441.25;;;11.09;100.00
6829;BME280;17930;48.592;8.868;2023-11-21T12:46:04;96428.97;;;10.91;100.00
6829;BME280;17930;48.592;8.868;2023-11-21T12:48:32;96427.66;;;10.93;100.00
6829;BME280;17930;48.592;8.868;2023-11-21T12:51:00;96423.25;;;10.89;100.00
6829;BME280;17930;48.592;8.868;2023-11-21T12:53:28;96430.38;;;10.65;100.00
6829;BME280;17930;48.592;8.868;2023-11-21T12:56:07;96428.16;;;10.07;100.00
6829;BME280;17930;48.592;8.868;2023-11-21T12:58:34;96443.78;;;9.74;100.00
6829;BME280;17930;48.592;8.868;2023-11-21T13:01:01;96443.84;;;9.69;100.00
6829;BME280;17930;48.592;8.868;2023-11-21T13:03:29;96454.75;;;9.71;100.00
6829;BME280;17930;48.592;8.868;2023-11-21T13:05:59;96455.63;;;9.95;100.00
6829;BME280;17930;48.592;8.868;2023-11-21T13:08:26;96464.50;;;9.89;100.00
6829;BME280;17930;48.592;8.868;2023-11-21T13:10:56;96471.97;;;9.67;100.00
6829;BME280;17930;48.592;8.868;2023-11-21T13:13:25;96474.63;;;9.57;100.00